Time;durP1;ratioP1;P1;durP2;ratioP2;P2;SDS_P1;SDS_P2;PMS_P1;PMS_P2;Temp;Humidity;BMP_temperature;BMP_pressure;BME280_temperature;BME280_humidity;BME280_pressure;Samples;Min_cycle;Max_cycle;Signal;HPM_P1;HPM_P2
2022/12/15 00:40:58;;;;;;;;;;;-3.30;99.90;;;;;;4950319;28;1127;-60
2022/12/15 00:43:42;;;;;;;;;;;-2.50;99.90;;;;;;4951338;29;1160;-60
2022/12/15 00:48:52;;;;;;;;;;;-3.30;99.90;;;;;;4950864;29;1120;-60
2022/12/15 00:51:18;;;;;;;;;;;-3.40;99.90;;;;;;4959515;28;1982;-59
2022/12/15 01:21:09;;;;;;;;;;;-3.20;99.90;;;;;;4953650;29;1112;-60
2022/12/15 01:23:35;;;;;;;;;;;-3.10;99.90;;;;;;4953902;29;1119;-60
2022/12/15 01:26:01;;;;;;;;;;;-3.20;99.90;;;;;;4937427;28;1116;-59
2022/12/15 01:28:27;;;;;;;;;;;-3.20;99.90;;;;;;4972747;28;1170;-60
2022/12/15 01:30:53;;;;;;;;;;;-3.50;99.90;;;;;;4955725;28;1155;-60
2022/12/15 01:33:19;;;;;;;;;;;-3.70;99.90;;;;;;4972830;28;1910;-60
2022/12/15 01:35:53;;;;;;;;;;;-3.20;99.90;;;;;;4949204;28;1258;-60
2022/12/15 01:38:19;;;;;;;;;;;-3.50;99.90;;;;;;4962065;28;1253;-60
2022/12/15 01:40:49;;;;;;;;;;;-3.40;99.90;;;;;;4953803;29;1151;-60
2022/12/15 01:43:18;;;;;;;;;;;-3.40;99.90;;;;;;4961013;28;1247;-60
2022/12/15 01:45:43;;;;;;;;;;;-3.30;99.90;;;;;;4973005;28;1139;-60
2022/12/15 01:48:11;;;;;;;;;;;-3.30;99.90;;;;;;4973271;28;1119;-59
2022/12/15 01:50:50;;;;;;;;;;;-3.10;99.90;;;;;;4972296;28;1071;-60
2022/12/15 01:53:16;;;;;;;;;;;-3.20;99.90;;;;;;4964646;28;1969;-60
2022/12/15 01:55:43;;;;;;;;;;;-2.60;99.90;;;;;;4963460;28;1114;-60
2022/12/15 01:58:09;;;;;;;;;;;-3.10;99.90;;;;;;4953016;29;1116;-59
2022/12/15 02:00:35;;;;;;;;;;;-3.10;99.90;;;;;;4952976;28;1625;-60
2022/12/15 02:03:03;;;;;;;;;;;-3.00;99.90;;;;;;4952968;29;1076;-60
2022/12/15 02:05:30;;;;;;;;;;;-3.10;99.90;;;;;;4951948;28;1179;-60
2022/12/15 02:07:57;;;;;;;;;;;-3.10;99.90;;;;;;4953914;28;1325;-60
2022/12/15 02:10:26;;;;;;;;;;;-3.20;99.90;;;;;;4951737;28;1362;-60
2022/12/15 02:13:11;;;;;;;;;;;-3.40;99.90;;;;;;4953101;28;1911;-59
2022/12/15 02:15:42;;;;;;;;;;;-3.40;99.90;;;;;;4953897;28;1258;-60
2022/12/15 02:18:18;;;;;;;;;;;-3.50;99.90;;;;;;4953182;28;1170;-60
2022/12/15 02:20:57;;;;;;;;;;;-3.80;99.90;;;;;;4953441;29;1210;-60
2022/12/15 02:23:27;;;;;;;;;;;-4.00;99.90;;;;;;4953047;29;1140;-60
2022/12/15 02:26:02;;;;;;;;;;;-4.10;99.90;;;;;;4935440;29;1136;-60
2022/12/15 02:28:36;;;;;;;;;;;-4.20;99.90;;;;;;4952942;28;1216;-59
2022/12/15 02:33:52;;;;;;;;;;;-4.30;99.90;;;;;;4953100;29;1084;-60
2022/12/15 02:36:24;;;;;;;;;;;-4.20;99.90;;;;;;4957902;28;1160;-60
2022/12/15 02:38:50;;;;;;;;;;;-4.20;99.90;;;;;;4955803;28;1592;-60
2022/12/15 02:41:34;;;;;;;;;;;-4.30;99.90;;;;;;4935816;29;1148;-59
2022/12/15 02:44:01;;;;;;;;;;;-4.30;99.90;;;;;;4952860;29;1069;-59
2022/12/15 02:46:26;;;;;;;;;;;-4.30;99.90;;;;;;4951638;28;1188;-60
2022/12/15 02:49:04;;;;;;;;;;;-4.40;99.90;;;;;;4952907;29;1100;-60
2022/12/15 02:51:34;;;;;;;;;;;-4.50;99.90;;;;;;4952828;29;1911;-60
2022/12/15 02:54:04;;;;;;;;;;;-4.70;99.90;;;;;;4933940;29;1144;-59
2022/12/15 02:56:43;;;;;;;;;;;-4.60;99.90;;;;;;4952447;29;1124;-59
2022/12/15 02:59:13;;;;;;;;;;;-4.60;99.90;;;;;;4951911;29;1143;-59
2022/12/15 03:02:00;;;;;;;;;;;-4.50;99.90;;;;;;4952261;29;1112;-60
2022/12/15 03:04:26;;;;;;;;;;;-4.30;99.90;;;;;;4951974;29;1274;-60
2022/12/15 03:06:53;;;;;;;;;;;-3.30;99.90;;;;;;4937389;28;1122;-60
2022/12/15 03:09:19;;;;;;;;;;;-3.90;99.90;;;;;;4963514;28;1299;-60
2022/12/15 03:11:44;;;;;;;;;;;-3.90;99.90;;;;;;4955266;28;1976;-59
2022/12/15 03:14:10;;;;;;;;;;;-3.90;99.90;;;;;;4954448;28;1193;-59
2022/12/15 03:16:36;;;;;;;;;;;-3.90;99.90;;;;;;4951585;28;1147;-60
2022/12/15 03:19:01;;;;;;;;;;;-3.90;99.90;;;;;;4952111;29;961;-60
2022/12/15 03:21:27;;;;;;;;;;;-3.80;99.90;;;;;;4937269;28;1152;-60
2022/12/15 03:23:52;;;;;;;;;;;-3.70;99.90;;;;;;4971272;28;1104;-60
2022/12/15 03:26:18;;;;;;;;;;;-3.40;99.90;;;;;;4971524;28;1138;-60
2022/12/15 03:28:44;;;;;;;;;;;-3.10;99.90;;;;;;4966766;28;1150;-59
2022/12/15 03:31:09;;;;;;;;;;;-2.10;99.90;;;;;;4934464;29;1976;-60
2022/12/15 03:33:35;;;;;;;;;;;-2.50;99.90;;;;;;4934548;29;1108;-60
2022/12/15 03:36:01;;;;;;;;;;;-2.50;99.90;;;;;;4951365;28;1128;-60
2022/12/15 03:38:26;;;;;;;;;;;-2.50;99.90;;;;;;4951513;28;1219;-60
2022/12/15 03:40:52;;;;;;;;;;;-2.50;99.90;;;;;;4934796;29;1187;-60
2022/12/15 03:43:17;;;;;;;;;;;-2.60;99.90;;;;;;4934055;29;1223;-60
2022/12/15 03:45:43;;;;;;;;;;;-2.80;99.90;;;;;;4951748;29;1117;-60
2022/12/15 03:48:09;;;;;;;;;;;-2.80;99.90;;;;;;4951508;28;1110;-60
2022/12/15 03:50:34;;;;;;;;;;;-3.10;99.90;;;;;;4933554;29;1001;-60
2022/12/15 03:53:01;;;;;;;;;;;-3.20;99.90;;;;;;4934000;29;1976;-60
2022/12/15 03:55:28;;;;;;;;;;;-3.40;99.90;;;;;;4953629;28;1005;-59
2022/12/15 03:57:54;;;;;;;;;;;-2.30;99.90;;;;;;4960684;28;1347;-59
2022/12/15 04:00:20;;;;;;;;;;;-3.60;99.90;;;;;;4953241;28;1321;-60
2022/12/15 04:02:46;;;;;;;;;;;-3.70;99.90;;;;;;4950832;28;1313;-60
2022/12/15 04:05:18;;;;;;;;;;;-3.70;99.90;;;;;;4950242;28;1304;-60
2022/12/15 04:07:44;;;;;;;;;;;-3.50;99.90;;;;;;4951640;28;1191;-60
2022/12/15 04:10:10;;;;;;;;;;;-3.40;99.90;;;;;;4950271;28;1255;-60
2022/12/15 04:12:38;;;;;;;;;;;-3.50;99.90;;;;;;4952020;28;1988;-60
2022/12/15 04:15:05;;;;;;;;;;;-2.50;99.90;;;;;;4950372;29;1305;-59
2022/12/15 04:17:30;;;;;;;;;;;-3.20;99.90;;;;;;4951573;28;1227;-60
2022/12/15 04:20:08;;;;;;;;;;;-3.20;99.90;;;;;;4954535;28;1254;-60
2022/12/15 04:22:34;;;;;;;;;;;-2.70;99.90;;;;;;4950306;28;1286;-60
2022/12/15 05:33:26;;;;;;;;;;;-3.20;99.90;;;;;;4959138;28;1910;-60
2022/12/15 05:35:54;;;;;;;;;;;-3.90;99.90;;;;;;4932489;29;1100;-60
2022/12/15 05:38:20;;;;;;;;;;;-2.90;99.90;;;;;;4950628;29;1633;-60
2022/12/15 05:40:45;;;;;;;;;;;-3.60;99.90;;;;;;4935069;29;1100;-59
2022/12/15 05:43:11;;;;;;;;;;;-3.50;99.90;;;;;;4961325;28;1129;-59
2022/12/15 05:45:37;;;;;;;;;;;-3.50;99.90;;;;;;4973285;28;1155;-60
2022/12/15 05:48:03;;;;;;;;;;;-3.40;99.90;;;;;;4955271;28;1175;-59
2022/12/15 05:50:28;;;;;;;;;;;-3.40;99.90;;;;;;4967639;28;1091;-61
2022/12/15 05:52:56;;;;;;;;;;;-3.40;99.90;;;;;;4953783;29;1915;-60
2022/12/15 05:55:22;;;;;;;;;;;-3.20;99.90;;;;;;4935464;29;1116;-60
2022/12/15 05:57:51;;;;;;;;;;;-3.40;99.90;;;;;;4953324;29;1159;-60
2022/12/15 06:00:17;;;;;;;;;;;-3.30;99.90;;;;;;4955889;28;1175;-60
2022/12/15 06:02:42;;;;;;;;;;;-3.30;99.90;;;;;;4972357;28;1147;-60
2022/12/15 06:05:08;;;;;;;;;;;-3.30;99.90;;;;;;4958880;28;1349;-60
2022/12/15 06:07:35;;;;;;;;;;;-3.30;99.90;;;;;;4953247;28;1187;-60
2022/12/15 06:10:00;;;;;;;;;;;-3.40;99.90;;;;;;4954910;28;1331;-60
2022/12/15 06:12:27;;;;;;;;;;;-3.40;99.90;;;;;;4956635;28;1910;-60
2022/12/15 06:14:52;;;;;;;;;;;-3.40;99.90;;;;;;4968072;28;1232;-60
2022/12/15 06:17:18;;;;;;;;;;;-3.50;99.90;;;;;;4964593;28;1088;-60
2022/12/15 06:19:43;;;;;;;;;;;-3.50;99.90;;;;;;4968141;28;1112;-60
2022/12/15 06:22:09;;;;;;;;;;;-2.80;99.90;;;;;;4972318;28;1162;-59
2022/12/15 06:24:35;;;;;;;;;;;-3.40;99.90;;;;;;4971889;28;1163;-60
2022/12/15 06:27:00;;;;;;;;;;;-3.40;99.90;;;;;;4966448;28;1176;-60
2022/12/15 06:29:26;;;;;;;;;;;-3.30;99.90;;;;;;4972748;28;1166;-59
2022/12/15 06:31:52;;;;;;;;;;;-3.40;99.90;;;;;;4971794;28;1910;-60
2022/12/15 06:34:18;;;;;;;;;;;-3.30;99.90;;;;;;4970462;28;1111;-59
2022/12/15 06:36:44;;;;;;;;;;;-3.30;99.90;;;;;;4961231;28;1159;-60
2022/12/15 06:39:10;;;;;;;;;;;-3.00;99.90;;;;;;4953406;28;1273;-59
2022/12/15 06:41:36;;;;;;;;;;;-3.30;99.90;;;;;;4952670;29;1111;-60
2022/12/15 06:44:02;;;;;;;;;;;-2.40;99.90;;;;;;4953978;28;1247;-60
2022/12/15 06:46:28;;;;;;;;;;;-2.60;99.90;;;;;;4971493;28;1154;-59
2022/12/15 06:48:54;;;;;;;;;;;-3.00;99.90;;;;;;4954489;28;1354;-59
2022/12/15 06:51:20;;;;;;;;;;;-3.10;99.90;;;;;;4970601;28;1930;-59
2022/12/15 06:53:49;;;;;;;;;;;-2.90;99.90;;;;;;4963648;28;1125;-59
2022/12/15 06:56:18;;;;;;;;;;;-2.80;99.90;;;;;;4952625;29;1096;-59
2022/12/15 06:58:43;;;;;;;;;;;-1.90;99.90;;;;;;4934393;29;1392;-59
2022/12/15 07:01:09;;;;;;;;;;;-2.70;99.90;;;;;;4952221;28;1056;-59
2022/12/15 07:03:35;;;;;;;;;;;-2.50;99.90;;;;;;4967219;28;1084;-59
2022/12/15 07:06:02;;;;;;;;;;;-2.40;99.90;;;;;;4954591;28;1202;-59
2022/12/15 07:08:28;;;;;;;;;;;-2.40;99.90;;;;;;4952165;28;1304;-59
2022/12/15 07:10:53;;;;;;;;;;;-2.40;99.90;;;;;;4961853;28;1153;-59
2022/12/15 07:13:19;;;;;;;;;;;-2.40;99.90;;;;;;4956610;28;1910;-59
2022/12/15 07:15:46;;;;;;;;;;;-2.50;99.90;;;;;;4954126;28;1108;-59
2022/12/15 07:18:11;;;;;;;;;;;-2.70;99.90;;;;;;4969856;28;1107;-58
2022/12/15 07:20:37;;;;;;;;;;;-2.70;99.90;;;;;;4960213;28;1161;-58
2022/12/15 07:23:06;;;;;;;;;;;-2.70;99.90;;;;;;4953754;28;1115;-59
2022/12/15 07:25:34;;;;;;;;;;;-2.10;99.90;;;;;;4953792;28;1504;-59
2022/12/15 07:27:59;;;;;;;;;;;-2.70;99.90;;;;;;4966679;28;1194;-59
2022/12/15 07:30:25;;;;;;;;;;;-2.70;99.90;;;;;;4971075;28;1154;-59
2022/12/15 07:32:51;;;;;;;;;;;-2.70;99.90;;;;;;4971116;28;1969;-59
2022/12/15 07:35:16;;;;;;;;;;;-2.80;99.90;;;;;;4969904;28;1016;-59
2022/12/15 07:37:42;;;;;;;;;;;-2.60;99.90;;;;;;4957378;28;1395;-59
2022/12/15 07:40:08;;;;;;;;;;;-2.60;99.90;;;;;;4951726;29;1132;-59
2022/12/15 07:42:34;;;;;;;;;;;-2.60;99.90;;;;;;4950454;29;1234;-59
2022/12/15 07:45:00;;;;;;;;;;;-2.50;99.90;;;;;;4952144;28;1159;-59
2022/12/15 07:47:26;;;;;;;;;;;-2.10;99.90;;;;;;4952019;28;1219;-59
2022/12/15 07:49:53;;;;;;;;;;;-2.50;99.90;;;;;;4938579;29;1268;-59
2022/12/15 07:52:19;;;;;;;;;;;-2.40;99.90;;;;;;4951487;29;1981;-59
2022/12/15 07:54:45;;;;;;;;;;;-2.30;99.90;;;;;;4950628;28;1088;-59
2022/12/15 07:57:11;;;;;;;;;;;-2.30;99.90;;;;;;4966851;28;1155;-59
2022/12/15 07:59:36;;;;;;;;;;;-2.00;99.90;;;;;;4961028;28;1242;-59
2022/12/15 08:02:03;;;;;;;;;;;-2.30;99.90;;;;;;4950483;29;1159;-59
2022/12/15 08:04:29;;;;;;;;;;;-2.20;99.90;;;;;;4949414;28;1083;-59
2022/12/15 08:06:55;;;;;;;;;;;-2.10;99.90;;;;;;4950646;28;1243;-59
2022/12/15 08:09:21;;;;;;;;;;;-2.00;99.90;;;;;;4950810;29;1332;-59
2022/12/15 08:11:46;;;;;;;;;;;-1.90;99.90;;;;;;4953563;28;1907;-59
2022/12/15 08:14:12;;;;;;;;;;;-1.90;99.90;;;;;;4951408;28;1246;-59
2022/12/15 08:16:38;;;;;;;;;;;-1.80;99.90;;;;;;4952502;28;2987;-59
2022/12/15 08:19:04;;;;;;;;;;;-1.80;99.90;;;;;;4941247;29;3199;-59
2022/12/15 08:21:30;;;;;;;;;;;-1.90;99.90;;;;;;4953946;28;1411;-59
2022/12/15 08:23:56;;;;;;;;;;;-1.70;99.90;;;;;;4961917;28;3146;-59
2022/12/15 08:26:22;;;;;;;;;;;-1.80;99.90;;;;;;4953276;28;1371;-59
2022/12/15 08:28:48;;;;;;;;;;;-1.80;99.90;;;;;;4952292;28;1223;-59
2022/12/15 08:31:15;;;;;;;;;;;-1.90;99.90;;;;;;4949760;28;1914;-59
2022/12/15 08:33:41;;;;;;;;;;;-1.80;99.90;;;;;;4950931;28;1088;-59
2022/12/15 08:36:08;;;;;;;;;;;-1.90;99.90;;;;;;4954845;28;1235;-59
2022/12/15 08:38:34;;;;;;;;;;;-1.90;99.90;;;;;;4949787;28;1340;-59
2022/12/15 08:41:15;;;;;;;;;;;-1.90;99.90;;;;;;4951685;28;1265;-59
2022/12/15 08:43:41;;;;;;;;;;;-2.10;99.90;;;;;;4950828;28;1211;-59
2022/12/15 08:46:07;;;;;;;;;;;-1.90;99.90;;;;;;4951337;28;1239;-60
2022/12/15 08:48:34;;;;;;;;;;;-1.80;99.90;;;;;;4949744;28;1432;-60
2022/12/15 08:51:00;;;;;;;;;;;-1.80;99.90;;;;;;4952547;28;1104;-60
2022/12/15 08:53:26;;;;;;;;;;;-1.70;99.90;;;;;;4935506;29;1942;-60
2022/12/15 08:55:51;;;;;;;;;;;-1.60;99.90;;;;;;4950285;28;1155;-60
2022/12/15 08:58:17;;;;;;;;;;;-1.20;99.90;;;;;;4962812;28;1171;-60
2022/12/15 09:00:43;;;;;;;;;;;-1.70;99.90;;;;;;4951141;28;1167;-60
2022/12/15 09:03:09;;;;;;;;;;;-0.80;99.90;;;;;;4950603;29;1112;-60
2022/12/15 09:05:35;;;;;;;;;;;-1.60;99.90;;;;;;4949213;28;1143;-60
2022/12/15 09:08:01;;;;;;;;;;;-1.50;99.90;;;;;;4951884;28;1246;-60
2022/12/15 09:10:27;;;;;;;;;;;-1.40;99.90;;;;;;4950515;29;1179;-60
2022/12/15 09:12:52;;;;;;;;;;;-0.60;99.90;;;;;;4936541;29;1938;-60
2022/12/15 09:15:18;;;;;;;;;;;-1.30;99.90;;;;;;4935424;29;3258;-60
2022/12/15 09:17:44;;;;;;;;;;;-1.30;99.90;;;;;;4953039;28;3090;-60
2022/12/15 09:20:10;;;;;;;;;;;-1.20;99.90;;;;;;4972254;28;1202;-60
2022/12/15 09:22:35;;;;;;;;;;;-1.20;99.90;;;;;;4955314;28;3391;-60
2022/12/15 09:25:02;;;;;;;;;;;-1.10;99.90;;;;;;4960934;28;1155;-60
2022/12/15 09:27:29;;;;;;;;;;;-1.20;99.90;;;;;;4935920;29;1179;-60
2022/12/15 09:29:55;;;;;;;;;;;-1.10;99.90;;;;;;4972855;28;1168;-60
2022/12/15 09:32:21;;;;;;;;;;;-1.00;99.90;;;;;;4961973;28;1919;-60
2022/12/15 09:34:47;;;;;;;;;;;-1.00;99.90;;;;;;4954324;28;3063;-61
2022/12/15 09:37:12;;;;;;;;;;;-0.90;99.90;;;;;;4953616;29;1217;-60
2022/12/15 09:39:38;;;;;;;;;;;-0.80;99.90;;;;;;4959021;28;1088;-60
2022/12/15 09:42:04;;;;;;;;;;;-0.90;99.90;;;;;;4966623;28;1064;-60
2022/12/15 09:44:30;;;;;;;;;;;-0.80;99.90;;;;;;4972285;28;1115;-60
2022/12/15 09:46:56;;;;;;;;;;;-0.60;99.90;;;;;;4972489;28;1131;-60
2022/12/15 09:49:28;;;;;;;;;;;-0.40;99.90;;;;;;4967276;28;1158;-60
2022/12/15 09:51:58;;;;;;;;;;;0.10;99.90;;;;;;4953456;29;1972;-60
2022/12/15 09:54:27;;;;;;;;;;;0.50;99.90;;;;;;4934629;29;1122;-60
2022/12/15 09:56:55;;;;;;;;;;;1.00;99.90;;;;;;4953342;29;1119;-60
2022/12/15 09:59:28;;;;;;;;;;;1.50;99.90;;;;;;4957950;28;1276;-60
2022/12/15 10:02:02;;;;;;;;;;;1.80;99.90;;;;;;4956090;28;1089;-61
2022/12/15 10:04:29;;;;;;;;;;;2.20;99.90;;;;;;4953497;28;1084;-61
2022/12/15 10:07:07;;;;;;;;;;;2.60;99.90;;;;;;4952758;28;1279;-61
2022/12/15 10:09:33;;;;;;;;;;;2.70;99.90;;;;;;4937494;29;1400;-60
2022/12/15 10:12:01;;;;;;;;;;;2.70;99.90;;;;;;4956523;28;1910;-61
2022/12/15 10:14:28;;;;;;;;;;;2.80;99.90;;;;;;4964637;28;1177;-61
2022/12/15 10:16:57;;;;;;;;;;;3.10;99.90;;;;;;4964258;28;1107;-60
2022/12/15 10:19:28;;;;;;;;;;;3.00;99.90;;;;;;4961289;28;1107;-61
2022/12/15 10:21:55;;;;;;;;;;;3.20;99.90;;;;;;4953416;29;1172;-61
2022/12/15 10:24:22;;;;;;;;;;;4.00;99.90;;;;;;4952231;28;1228;-61
2022/12/15 10:26:51;;;;;;;;;;;3.30;99.90;;;;;;4971357;28;1174;-60
2022/12/15 10:29:28;;;;;;;;;;;3.30;99.90;;;;;;4971789;28;1075;-61
2022/12/15 10:31:57;;;;;;;;;;;3.50;99.90;;;;;;4971855;28;1914;-61
2022/12/15 10:34:25;;;;;;;;;;;3.90;99.90;;;;;;4963142;28;1119;-61
2022/12/15 10:36:51;;;;;;;;;;;3.90;99.90;;;;;;4937751;28;1132;-61
2022/12/15 10:39:19;;;;;;;;;;;4.80;99.90;;;;;;4952879;28;1437;-61
2022/12/15 10:41:45;;;;;;;;;;;4.50;99.90;;;;;;4953040;29;1096;-61
2022/12/15 10:44:23;;;;;;;;;;;4.70;99.90;;;;;;4934821;29;1212;-61
2022/12/15 10:46:53;;;;;;;;;;;4.40;99.90;;;;;;4952305;29;1124;-61
2022/12/15 10:49:21;;;;;;;;;;;5.30;99.90;;;;;;4952617;29;1104;-61
2022/12/15 10:51:52;;;;;;;;;;;4.40;99.90;;;;;;4951800;28;1951;-61
2022/12/15 10:54:17;;;;;;;;;;;4.60;99.90;;;;;;4971281;28;1128;-60
2022/12/15 10:56:48;;;;;;;;;;;4.70;99.90;;;;;;4970697;28;1099;-61
2022/12/15 10:59:20;;;;;;;;;;;4.90;99.90;;;;;;4956545;28;1174;-61
2022/12/15 11:01:46;;;;;;;;;;;5.30;99.90;;;;;;4964365;28;1134;-61
2022/12/15 11:04:24;;;;;;;;;;;5.60;99.90;;;;;;4953253;28;1160;-61
2022/12/15 11:06:54;;;;;;;;;;;6.00;99.90;;;;;;4952050;29;1327;-61
2022/12/15 11:09:37;;;;;;;;;;;6.00;99.90;;;;;;4951987;28;1321;-61
2022/12/15 11:14:59;;;;;;;;;;;5.10;99.90;;;;;;4967917;28;1172;-61
2022/12/15 11:17:36;;;;;;;;;;;5.20;99.90;;;;;;4970068;28;1127;-61
2022/12/15 11:20:04;;;;;;;;;;;5.10;99.90;;;;;;4969719;28;1131;-61
2022/12/15 11:22:42;;;;;;;;;;;5.40;99.90;;;;;;4971674;28;1182;-61
2022/12/15 11:25:32;;;;;;;;;;;5.80;99.90;;;;;;4953985;28;1111;-61
2022/12/15 11:28:01;;;;;;;;;;;6.10;99.90;;;;;;4960035;28;1153;-61
2022/12/15 11:30:30;;;;;;;;;;;6.10;99.90;;;;;;4971208;28;1103;-61
2022/12/15 11:32:57;;;;;;;;;;;6.00;99.90;;;;;;4953101;28;1923;-61
2022/12/15 11:35:26;;;;;;;;;;;6.20;99.90;;;;;;4963738;28;3641;-61
2022/12/15 11:37:59;;;;;;;;;;;6.30;99.90;;;;;;4950960;28;3621;-61
2022/12/15 11:40:31;;;;;;;;;;;6.40;99.90;;;;;;4951015;29;1104;-61
2022/12/15 11:43:10;;;;;;;;;;;6.70;99.90;;;;;;4948161;28;3018;-61
2022/12/15 11:45:53;;;;;;;;;;;6.90;99.90;;;;;;4945505;28;1093;-61
2022/12/15 11:48:20;;;;;;;;;;;7.20;99.90;;;;;;4951005;29;1127;-61
2022/12/15 11:50:52;;;;;;;;;;;7.10;99.90;;;;;;4934119;29;1089;-61
2022/12/15 11:53:19;;;;;;;;;;;7.00;99.90;;;;;;4954425;28;1942;-61
2022/12/15 11:55:46;;;;;;;;;;;6.60;99.90;;;;;;4956295;28;1096;-61
2022/12/15 11:58:12;;;;;;;;;;;5.80;99.90;;;;;;4951150;28;1214;-61
2022/12/15 12:00:41;;;;;;;;;;;5.20;99.90;;;;;;4940341;29;1178;-61
2022/12/15 12:03:07;;;;;;;;;;;5.20;99.90;;;;;;4952894;28;1412;-61
2022/12/15 12:05:33;;;;;;;;;;;5.10;99.90;;;;;;4957620;28;1100;-61
2022/12/15 12:08:14;;;;;;;;;;;5.20;99.90;;;;;;4949155;29;1136;-61
2022/12/15 12:10:43;;;;;;;;;;;5.10;99.90;;;;;;4941082;29;1593;-61
2022/12/15 12:13:09;;;;;;;;;;;4.90;99.90;;;;;;4951838;28;1914;-61
2022/12/15 12:15:45;;;;;;;;;;;4.70;99.90;;;;;;4950234;28;1301;-61
2022/12/15 12:18:16;;;;;;;;;;;4.80;99.90;;;;;;4950871;29;1112;-61
2022/12/15 12:20:45;;;;;;;;;;;5.10;99.90;;;;;;4939562;29;1239;-61
2022/12/15 12:23:11;;;;;;;;;;;5.30;99.90;;;;;;4952446;28;1097;-61
2022/12/15 12:25:55;;;;;;;;;;;5.60;99.90;;;;;;4970624;28;1095;-61
2022/12/15 12:28:23;;;;;;;;;;;5.50;99.90;;;;;;4968299;28;1155;-61
2022/12/15 12:30:48;;;;;;;;;;;5.80;99.90;;;;;;4963199;28;1210;-61
2022/12/15 12:33:32;;;;;;;;;;;6.20;99.90;;;;;;4970182;28;1981;-61
2022/12/15 12:36:04;;;;;;;;;;;6.60;99.90;;;;;;4969649;28;1150;-62
2022/12/15 12:38:39;;;;;;;;;;;6.80;99.90;;;;;;4966587;28;1572;-62
2022/12/15 12:41:09;;;;;;;;;;;6.80;99.90;;;;;;4952075;28;1258;-62
2022/12/15 12:43:37;;;;;;;;;;;6.90;99.90;;;;;;4951924;28;1133;-61
2022/12/15 12:46:03;;;;;;;;;;;6.70;99.90;;;;;;4950456;28;1160;-61
2022/12/15 12:48:30;;;;;;;;;;;6.80;99.90;;;;;;4962552;28;1084;-62
2022/12/15 12:51:10;;;;;;;;;;;6.60;99.90;;;;;;4972068;28;1158;-62
2022/12/15 12:53:36;;;;;;;;;;;7.00;99.90;;;;;;4973363;28;1911;-61
2022/12/15 12:56:02;;;;;;;;;;;6.80;99.90;;;;;;4969678;28;1128;-61
2022/12/15 12:58:41;;;;;;;;;;;6.90;99.90;;;;;;4972646;28;1119;-62
2022/12/15 13:01:09;;;;;;;;;;;7.30;99.90;;;;;;4954403;28;1199;-62
2022/12/15 13:03:38;;;;;;;;;;;7.60;99.90;;;;;;4954409;28;1179;-60
2022/12/15 13:06:20;;;;;;;;;;;7.50;99.90;;;;;;4953530;29;1313;-60
2022/12/15 13:08:48;;;;;;;;;;;7.70;99.90;;;;;;4954282;29;1368;-61
2022/12/15 13:11:32;;;;;;;;;;;7.90;99.90;;;;;;4956838;28;1100;-60
2022/12/15 13:13:58;;;;;;;;;;;7.80;99.90;;;;;;4948278;28;1189;-60
2022/12/15 13:16:25;;;;;;;;;;;6.80;99.90;;;;;;4954411;29;1100;-60
2022/12/15 13:19:03;;;;;;;;;;;6.10;99.90;;;;;;4936552;29;1105;-60
2022/12/15 13:21:40;;;;;;;;;;;6.00;99.90;;;;;;4953625;28;1159;-60
2022/12/15 13:24:20;;;;;;;;;;;6.00;99.90;;;;;;4954475;29;1204;-60
2022/12/15 13:26:46;;;;;;;;;;;5.40;99.90;;;;;;4953849;29;1159;-60
2022/12/15 13:29:13;;;;;;;;;;;5.00;99.90;;;;;;4936555;29;1100;-60
2022/12/15 13:31:42;;;;;;;;;;;5.20;99.90;;;;;;4937636;29;1997;-60
2022/12/15 13:34:11;;;;;;;;;;;5.70;99.90;;;;;;4953241;29;1143;-60
2022/12/15 13:36:38;;;;;;;;;;;5.90;99.90;;;;;;4953683;29;1127;-60
2022/12/15 13:39:24;;;;;;;;;;;6.10;99.90;;;;;;4953612;28;1302;-60
2022/12/15 13:41:50;;;;;;;;;;;6.30;99.90;;;;;;4963953;28;2111;-60
2022/12/15 13:44:16;;;;;;;;;;;6.30;99.90;;;;;;4972955;28;968;-60
2022/12/15 13:46:43;;;;;;;;;;;6.60;99.90;;;;;;4964292;28;1091;-60
2022/12/15 13:49:14;;;;;;;;;;;6.80;99.90;;;;;;4953762;28;1127;-60
2022/12/15 13:51:41;;;;;;;;;;;6.90;99.90;;;;;;4948693;28;3354;-60
2022/12/15 13:54:08;;;;;;;;;;;6.30;99.90;;;;;;4953027;29;1069;-60
2022/12/15 13:56:34;;;;;;;;;;;5.90;99.90;;;;;;4953840;29;1143;-60
2022/12/15 13:59:03;;;;;;;;;;;5.90;99.90;;;;;;4962581;28;1278;-60
2022/12/15 14:01:30;;;;;;;;;;;6.00;99.90;;;;;;4953135;28;1179;-60
2022/12/15 14:03:57;;;;;;;;;;;5.90;99.90;;;;;;4953726;29;1096;-60
2022/12/15 14:06:24;;;;;;;;;;;6.20;99.90;;;;;;4952460;28;1304;-60
2022/12/15 14:08:50;;;;;;;;;;;6.20;99.90;;;;;;4968002;28;1354;-60
2022/12/15 14:11:21;;;;;;;;;;;6.00;99.90;;;;;;4956959;28;1119;-60
2022/12/15 14:13:47;;;;;;;;;;;6.10;99.90;;;;;;4946431;28;1911;-60
2022/12/15 14:16:12;;;;;;;;;;;6.20;99.90;;;;;;4969806;28;1176;-60
2022/12/15 14:18:39;;;;;;;;;;;6.20;99.90;;;;;;4967570;28;1174;-60
2022/12/15 14:21:06;;;;;;;;;;;5.80;99.90;;;;;;4953183;28;1151;-60
2022/12/15 14:23:40;;;;;;;;;;;5.00;99.90;;;;;;4952138;28;1136;-60
2022/12/15 14:26:07;;;;;;;;;;;4.40;99.90;;;;;;4934091;29;1128;-59
2022/12/15 14:28:33;;;;;;;;;;;3.70;99.90;;;;;;4952307;29;1163;-59
2022/12/15 14:31:02;;;;;;;;;;;3.20;99.90;;;;;;4953350;29;1155;-60
2022/12/15 14:33:29;;;;;;;;;;;2.90;99.90;;;;;;4960709;28;1914;-60
2022/12/15 14:35:56;;;;;;;;;;;2.40;99.90;;;;;;4954073;28;1256;-59
2022/12/15 14:38:25;;;;;;;;;;;2.40;99.90;;;;;;4960366;28;1564;-59
2022/12/15 14:40:53;;;;;;;;;;;2.20;99.90;;;;;;4935572;28;1101;-60
2022/12/15 14:43:21;;;;;;;;;;;2.20;99.90;;;;;;4941841;29;1163;-59
2022/12/15 14:45:50;;;;;;;;;;;2.00;99.90;;;;;;4952936;29;1096;-59
2022/12/15 14:48:21;;;;;;;;;;;2.00;99.90;;;;;;4935736;29;1136;-60
2022/12/15 14:50:47;;;;;;;;;;;2.00;99.90;;;;;;4951523;28;1092;-60
2022/12/15 14:53:15;;;;;;;;;;;1.90;99.90;;;;;;4952283;29;1915;-59
2022/12/15 14:55:41;;;;;;;;;;;1.90;99.90;;;;;;4935056;29;1571;-60
2022/12/15 14:58:23;;;;;;;;;;;1.90;99.90;;;;;;4951733;28;1199;-59
2022/12/15 15:00:50;;;;;;;;;;;1.90;99.90;;;;;;4958118;28;1192;-60
2022/12/15 15:03:17;;;;;;;;;;;1.90;99.90;;;;;;4971640;28;1091;-59
2022/12/15 15:05:45;;;;;;;;;;;2.00;99.90;;;;;;4956840;28;1300;-59
2022/12/15 15:08:18;;;;;;;;;;;2.00;99.90;;;;;;4952152;28;1100;-59
2022/12/15 15:10:44;;;;;;;;;;;2.00;99.90;;;;;;4951828;28;1673;-60
2022/12/15 15:13:18;;;;;;;;;;;1.90;99.90;;;;;;4956447;28;1977;-60
2022/12/15 15:15:50;;;;;;;;;;;1.90;99.90;;;;;;4954460;28;1171;-60
2022/12/15 15:18:16;;;;;;;;;;;1.80;99.90;;;;;;4957271;28;1100;-60
2022/12/15 15:20:48;;;;;;;;;;;1.70;99.90;;;;;;4971289;28;1162;-59
2022/12/15 15:23:15;;;;;;;;;;;1.80;99.90;;;;;;4971372;28;1182;-59
2022/12/15 15:25:49;;;;;;;;;;;1.70;99.90;;;;;;4965211;28;1158;-59
2022/12/15 15:28:16;;;;;;;;;;;1.60;99.90;;;;;;4970718;28;1108;-60
2022/12/15 15:30:50;;;;;;;;;;;1.50;99.90;;;;;;4971348;28;1202;-59
2022/12/15 15:33:16;;;;;;;;;;;1.50;99.90;;;;;;4970511;28;1910;-59
2022/12/15 15:35:43;;;;;;;;;;;1.50;99.90;;;;;;4969313;28;1144;-59
2022/12/15 15:38:21;;;;;;;;;;;1.40;99.90;;;;;;4961285;28;1285;-59
2022/12/15 15:40:48;;;;;;;;;;;1.30;99.90;;;;;;4933990;29;1211;-59
2022/12/15 15:43:14;;;;;;;;;;;1.40;99.90;;;;;;4933588;29;1097;-60
2022/12/15 15:45:40;;;;;;;;;;;1.40;99.90;;;;;;4966108;28;1109;-60
2022/12/15 15:48:08;;;;;;;;;;;1.30;99.90;;;;;;4971097;28;1158;-59
2022/12/15 15:50:34;;;;;;;;;;;1.70;99.90;;;;;;4964577;28;3104;-59
2022/12/15 15:53:01;;;;;;;;;;;1.30;99.90;;;;;;4957882;28;2858;-59
2022/12/15 15:55:29;;;;;;;;;;;2.30;99.90;;;;;;4968008;28;1253;-60
2022/12/15 15:57:55;;;;;;;;;;;1.40;99.90;;;;;;4951650;29;1128;-60
2022/12/15 16:00:24;;;;;;;;;;;1.40;99.90;;;;;;4950886;28;1288;-59
2022/12/15 16:02:50;;;;;;;;;;;1.40;99.90;;;;;;4961254;28;1161;-60
2022/12/15 16:05:16;;;;;;;;;;;1.30;99.90;;;;;;4936674;29;1147;-59
2022/12/15 16:07:43;;;;;;;;;;;1.20;99.90;;;;;;4931208;29;1220;-60
2022/12/15 16:10:11;;;;;;;;;;;1.20;99.90;;;;;;4940130;29;1307;-60
2022/12/15 16:12:41;;;;;;;;;;;1.10;99.90;;;;;;4938364;29;1919;-60
2022/12/15 16:15:14;;;;;;;;;;;1.10;99.90;;;;;;4949921;29;1104;-60
2022/12/15 16:17:40;;;;;;;;;;;1.00;99.90;;;;;;4950862;29;1763;-60
2022/12/15 16:20:07;;;;;;;;;;;0.90;99.90;;;;;;4940179;29;1130;-60
2022/12/15 16:22:32;;;;;;;;;;;0.80;99.90;;;;;;4939803;29;1270;-60
2022/12/15 16:24:58;;;;;;;;;;;0.80;99.90;;;;;;4940131;29;1238;-60
2022/12/15 16:27:24;;;;;;;;;;;0.80;99.90;;;;;;4933884;29;1104;-60
2022/12/15 16:29:49;;;;;;;;;;;0.70;99.90;;;;;;4939246;29;1254;-60
2022/12/15 16:32:15;;;;;;;;;;;0.70;99.90;;;;;;4930244;29;1994;-60
2022/12/15 16:34:41;;;;;;;;;;;0.50;99.90;;;;;;4931987;29;1210;-59
2022/12/15 16:37:22;;;;;;;;;;;1.10;99.90;;;;;;4931015;29;1280;-59
2022/12/15 16:39:48;;;;;;;;;;;0.50;99.90;;;;;;4919945;29;1105;-60
2022/12/15 16:42:14;;;;;;;;;;;0.50;99.90;;;;;;4934718;29;1103;-59
2022/12/15 16:44:39;;;;;;;;;;;0.60;99.90;;;;;;4911506;29;1117;-59
2022/12/15 16:47:05;;;;;;;;;;;1.10;99.90;;;;;;4948992;28;1143;-59
2022/12/15 16:49:31;;;;;;;;;;;0.70;99.90;;;;;;4933118;29;1227;-60
2022/12/15 16:51:57;;;;;;;;;;;0.60;99.90;;;;;;4941862;29;1910;-60
2022/12/15 16:54:25;;;;;;;;;;;0.30;99.90;;;;;;4940077;29;1297;-60
2022/12/15 16:56:52;;;;;;;;;;;0.80;99.90;;;;;;4938998;29;1266;-59
2022/12/15 16:59:19;;;;;;;;;;;0.60;99.90;;;;;;4939340;29;1290;-59
2022/12/15 17:01:45;;;;;;;;;;;0.70;99.90;;;;;;4939143;29;1187;-59
2022/12/15 17:04:11;;;;;;;;;;;0.80;99.90;;;;;;4937772;29;1282;-59
2022/12/15 17:06:37;;;;;;;;;;;0.50;99.90;;;;;;4931112;29;1245;-59